createdAt,value
2017-11-15T16:17:39.104Z,1019.28
2017-11-15T16:18:39.031Z,1019.27
2017-11-15T16:19:39.010Z,1019.32
2017-11-15T16:20:38.936Z,1019.29
2017-11-15T16:21:38.894Z,1019.29
2017-11-15T16:22:38.838Z,1019.31
2017-11-15T16:23:38.793Z,1019.30
2017-11-15T16:24:38.748Z,1019.33
2017-11-15T16:25:38.729Z,1019.31
2017-11-15T16:26:38.656Z,1019.28
2017-11-15T16:27:38.637Z,1019.28
2017-11-15T16:28:38.565Z,1019.27
2017-11-15T16:29:38.521Z,1019.28
2017-11-15T16:30:38.475Z,1019.25
2017-11-15T16:31:38.453Z,1019.27
2017-11-15T16:32:38.397Z,1019.28
2017-11-15T16:33:38.342Z,1019.29
2017-11-15T16:34:38.299Z,1019.30
2017-11-15T16:35:38.255Z,1019.31
2017-11-15T16:36:38.237Z,1019.31
2017-11-15T16:37:38.179Z,1019.32
2017-11-15T16:38:38.124Z,1019.32
2017-11-15T16:39:38.080Z,1019.28
2017-11-15T16:40:38.036Z,1019.32
2017-11-15T16:41:37.992Z,1019.36
2017-11-15T16:42:37.977Z,1019.38
2017-11-15T16:43:37.906Z,1019.38
2017-11-15T16:44:37.863Z,1019.38
2017-11-15T16:45:37.820Z,1019.35
2017-11-15T16:46:37.778Z,1019.36
2017-11-15T16:47:37.733Z,1019.37
2017-11-15T16:48:37.714Z,1019.33
2017-11-15T16:49:37.650Z,1019.32
2017-11-15T16:50:37.607Z,1019.35
2017-11-15T16:51:37.561Z,1019.33
2017-11-15T16:52:37.520Z,1019.35
2017-11-15T16:53:37.503Z,1019.34
2017-11-15T16:54:37.435Z,1019.35
2017-11-15T16:55:37.393Z,1019.33
2017-11-15T16:56:37.350Z,1019.35
2017-11-15T16:57:37.308Z,1019.35
2017-11-15T16:58:37.262Z,1019.35
2017-11-15T16:59:37.250Z,1019.36
2017-11-15T17:00:37.180Z,1019.30
2017-11-15T17:01:37.137Z,1019.31
2017-11-15T17:02:37.094Z,1019.34
2017-11-15T17:03:37.053Z,1019.32
2017-11-15T17:04:37.011Z,1019.31
2017-11-15T17:05:36.991Z,1019.30
2017-11-15T17:06:36.925Z,1019.27
2017-11-15T17:07:36.883Z,1019.27
2017-11-15T17:08:36.840Z,1019.25
2017-11-15T17:09:36.798Z,1019.23
2017-11-15T17:10:36.782Z,1019.23
2017-11-15T17:11:36.714Z,1019.22
2017-11-15T17:12:36.671Z,1019.19
2017-11-15T17:13:36.629Z,1019.21
2017-11-15T17:14:36.586Z,1019.20
2017-11-15T17:15:36.547Z,1019.24
2017-11-15T17:16:36.531Z,1019.21
2017-11-15T17:17:36.460Z,1019.18
2017-11-15T17:18:36.418Z,1019.20
2017-11-15T17:19:36.376Z,1019.22
2017-11-15T17:20:36.340Z,1019.20
2017-11-15T17:21:36.292Z,1019.23
2017-11-15T17:22:36.277Z,1019.26
2017-11-15T17:23:36.207Z,1019.28
2017-11-15T17:24:36.166Z,1019.24
2017-11-15T17:25:36.123Z,1019.30
2017-11-15T17:26:36.082Z,1019.30
2017-11-15T17:27:36.044Z,1019.30
2017-11-15T17:28:36.026Z,1019.25
2017-11-15T17:29:35.955Z,1019.24
2017-11-15T17:30:35.915Z,1019.26
2017-11-15T17:31:35.875Z,1019.25
2017-11-15T17:32:35.826Z,1019.25
2017-11-15T17:33:35.785Z,1019.23
2017-11-15T17:34:35.773Z,1019.22
2017-11-15T17:35:35.708Z,1019.24
2017-11-15T17:36:35.660Z,1019.28
2017-11-15T17:37:35.620Z,1019.25
2017-11-15T17:38:35.584Z,1019.27
2017-11-15T17:39:35.533Z,1019.31
2017-11-15T17:40:35.514Z,1019.27
2017-11-15T17:41:35.453Z,1019.29
2017-11-15T17:42:35.407Z,1019.30
2017-11-15T17:43:35.369Z,1019.34
2017-11-15T17:44:35.323Z,1019.33
2017-11-15T17:45:35.309Z,1019.36
2017-11-15T17:46:35.238Z,1019.37
2017-11-15T17:47:35.197Z,1019.41
2017-11-15T17:48:35.154Z,1019.38
2017-11-15T17:49:35.112Z,1019.38
2017-11-15T17:50:35.070Z,1019.34
2017-11-15T17:51:35.059Z,1019.35
2017-11-15T17:52:34.989Z,1019.35
2017-11-15T17:53:34.945Z,1019.31
2017-11-15T17:54:34.901Z,1019.36
2017-11-15T17:55:34.861Z,1019.33
2017-11-15T17:56:34.850Z,1019.33
2017-11-15T17:57:34.797Z,1019.32
2017-11-15T17:58:34.731Z,1019.35
2017-11-15T17:59:34.695Z,1019.39
2017-11-15T18:00:34.647Z,1019.39
2017-11-15T18:01:34.606Z,1019.41
2017-11-15T18:02:34.593Z,1019.39
2017-11-15T18:03:34.525Z,1019.41
2017-11-15T18:04:34.481Z,1019.41
2017-11-15T18:05:34.437Z,1019.37
2017-11-15T18:06:34.396Z,1019.40
2017-11-15T18:07:34.353Z,1019.38
2017-11-15T18:08:34.339Z,1019.39
2017-11-15T18:09:34.268Z,1019.39
2017-11-15T18:10:34.242Z,1019.36
2017-11-15T18:11:34.188Z,1019.37
2017-11-15T18:12:34.146Z,1019.33
2017-11-15T18:13:34.101Z,1019.35
2017-11-15T18:14:34.092Z,1019.32
2017-11-15T18:15:34.017Z,1019.34
2017-11-15T18:16:33.974Z,1019.33
2017-11-15T18:17:33.931Z,1019.33
2017-11-15T18:18:33.889Z,1019.31
2017-11-15T18:19:33.875Z,1019.32
2017-11-15T18:20:33.807Z,1019.34
2017-11-15T18:24:17.471Z,1019.30
2017-11-15T18:24:50.431Z,1019.30
2017-11-15T18:26:51.189Z,1019.35
2017-11-15T18:27:24.184Z,1019.33
2017-11-15T18:27:57.127Z,1019.29
2017-11-15T18:28:30.338Z,1019.35
2017-11-15T18:29:03.272Z,1019.32
2017-11-15T18:29:36.256Z,1019.35
2017-11-15T18:30:09.520Z,1019.33
2017-11-15T18:30:42.846Z,1019.34
2017-11-15T18:31:16.033Z,1019.34
2017-11-15T18:31:48.947Z,1019.34
2017-11-15T18:32:21.884Z,1019.34
2017-11-15T18:32:54.955Z,1019.37
2017-11-15T18:33:28.148Z,1019.34
2017-11-15T18:34:01.265Z,1019.35
2017-11-15T18:34:34.368Z,1019.38
2017-11-15T18:35:07.708Z,1019.35
2017-11-15T18:35:40.648Z,1019.33
2017-11-15T18:36:13.789Z,1019.36
2017-11-15T18:36:47.058Z,1019.36
2017-11-15T18:37:20.097Z,1019.35
2017-11-15T18:37:53.109Z,1019.36
2017-11-15T18:38:26.211Z,1019.34
2017-11-15T18:38:59.229Z,1019.37
2017-11-15T18:39:32.138Z,1019.35
2017-11-15T18:40:05.116Z,1019.38
2017-11-15T18:40:38.365Z,1019.38
2017-11-15T18:41:11.504Z,1019.36
2017-11-15T18:41:44.400Z,1019.35
2017-11-15T18:42:17.516Z,1019.32
2017-11-15T18:42:50.623Z,1019.32
2017-11-15T18:43:23.642Z,1019.33
2017-11-15T18:43:56.748Z,1019.33
2017-11-15T18:44:29.874Z,1019.32
2017-11-15T18:45:02.969Z,1019.33
2017-11-15T18:45:35.949Z,1019.32
2017-11-15T18:46:09.058Z,1019.31
2017-11-15T18:46:42.393Z,1019.31
2017-11-15T18:47:15.496Z,1019.34
2017-11-15T18:47:48.715Z,1019.29
2017-11-15T18:48:21.862Z,1019.32
2017-11-15T18:48:54.736Z,1019.36
2017-11-15T18:49:27.882Z,1019.33
2017-11-15T18:50:01.063Z,1019.33
2017-11-15T18:50:34.111Z,1019.35
2017-11-15T18:51:06.988Z,1019.32
2017-11-15T18:51:40.362Z,1019.33
2017-11-15T18:52:13.438Z,1019.32
2017-11-15T18:52:46.340Z,1019.27
2017-11-15T18:53:19.256Z,1019.28
2017-11-15T18:53:52.262Z,1019.26
2017-11-15T18:54:25.338Z,1019.28
2017-11-15T18:54:58.386Z,1019.29
2017-11-15T18:55:31.505Z,1019.26
2017-11-15T18:56:04.607Z,1019.29
2017-11-15T18:56:37.884Z,1019.27
2017-11-15T18:57:11.055Z,1019.29
2017-11-15T18:57:44.268Z,1019.25
2017-11-15T18:58:17.249Z,1019.28
2017-11-15T18:58:50.368Z,1019.25
2017-11-15T18:59:23.275Z,1019.26
2017-11-15T18:59:56.495Z,1019.26
2017-11-15T19:00:29.738Z,1019.24
2017-11-15T19:01:02.717Z,1019.25
2017-11-15T19:01:35.864Z,1019.26
2017-11-15T19:02:08.804Z,1019.23
2017-11-15T19:02:41.814Z,1019.25
2017-11-15T19:03:14.896Z,1019.25
2017-11-15T19:03:47.844Z,1019.21
2017-11-15T19:04:20.862Z,1019.20
2017-11-15T19:04:54.107Z,1019.22
2017-11-15T19:05:27.090Z,1019.21
2017-11-15T19:06:00.196Z,1019.21
2017-11-15T19:06:33.423Z,1019.23
2017-11-15T19:07:06.573Z,1019.22
2017-11-15T19:07:39.615Z,1019.18
2017-11-15T19:08:12.759Z,1019.20
2017-11-15T19:08:45.839Z,1019.19
2017-11-15T19:09:18.985Z,1019.18
2017-11-15T19:09:52.000Z,1019.20
2017-11-15T19:10:25.048Z,1019.18
2017-11-15T19:10:57.926Z,1019.18
2017-11-15T19:11:31.079Z,1019.20
2017-11-15T19:12:04.094Z,1019.20
2017-11-15T19:12:37.141Z,1019.20
2017-11-15T19:13:10.344Z,1019.22
2017-11-15T19:13:43.252Z,1019.22
2017-11-15T19:14:16.564Z,1019.18
2017-11-15T19:14:49.666Z,1019.20
2017-11-15T19:15:22.790Z,1019.16
2017-11-15T19:15:55.997Z,1019.16
2017-11-15T19:16:29.174Z,1019.19
2017-11-15T19:17:02.183Z,1019.17
2017-11-15T19:17:35.267Z,1019.15
2017-11-15T19:18:08.238Z,1019.15
2017-11-15T19:18:41.260Z,1019.19
2017-11-15T19:19:14.268Z,1019.14
2017-11-15T19:19:47.185Z,1019.16
2017-11-15T19:20:20.233Z,1019.14
2017-11-15T19:20:53.317Z,1019.18
2017-11-15T19:21:26.620Z,1019.18
2017-11-15T19:21:59.638Z,1019.15
2017-11-15T19:22:32.784Z,1019.13
2017-11-15T19:23:05.700Z,1019.13
2017-11-15T19:23:38.628Z,1019.12
2017-11-15T19:24:11.610Z,1019.16
2017-11-15T19:24:44.957Z,1019.11
2017-11-15T19:25:18.038Z,1019.11
2017-11-15T19:25:51.283Z,1019.12
2017-11-15T19:26:24.300Z,1019.15
2017-11-15T19:26:57.411Z,1019.12
2017-11-15T19:27:30.484Z,1019.10
